createdAt,value
2023-03-06T00:01:30.085Z,-6.17
2023-03-06T00:03:59.254Z,-6.13
2023-03-06T00:06:27.754Z,-6.11
2023-03-06T00:08:56.179Z,-6.10
2023-03-06T00:11:25.304Z,-6.08
2023-03-06T00:13:54.102Z,-6.00
2023-03-06T00:16:25.134Z,-5.95
2023-03-06T00:18:54.142Z,-5.92
2023-03-06T00:21:22.580Z,-5.93
2023-03-06T00:23:51.599Z,-5.98
2023-03-06T00:26:21.067Z,-6.03
2023-03-06T00:28:50.135Z,-6.03
2023-03-06T00:31:19.255Z,-6.06
2023-03-06T00:33:49.656Z,-6.07
2023-03-06T00:36:20.491Z,-6.04
2023-03-06T00:38:50.694Z,-5.99
2023-03-06T00:41:19.468Z,-5.99
2023-03-06T00:43:48.286Z,-5.98
2023-03-06T00:46:16.907Z,-5.96
2023-03-06T00:48:45.772Z,-5.96
2023-03-06T00:51:17.557Z,-5.97
2023-03-06T00:53:46.464Z,-5.94
2023-03-06T00:56:14.991Z,-5.96
2023-03-06T00:58:44.158Z,-5.96
2023-03-06T01:01:12.971Z,-5.98
2023-03-06T01:03:42.592Z,-5.95
2023-03-06T01:06:13.453Z,-5.88
2023-03-06T01:08:43.567Z,-5.79
2023-03-06T01:11:12.312Z,-5.73
2023-03-06T01:13:42.726Z,-5.67
2023-03-06T01:16:14.388Z,-5.61
2023-03-06T01:18:44.039Z,-5.55
2023-03-06T01:21:13.565Z,-5.48
2023-03-06T01:23:43.637Z,-5.45
2023-03-06T01:26:12.133Z,-5.39
2023-03-06T01:28:40.792Z,-5.34
2023-03-06T01:31:10.654Z,-5.28
2023-03-06T01:33:39.582Z,-5.26
2023-03-06T01:36:10.577Z,-5.27
2023-03-06T01:38:39.744Z,-5.29
2023-03-06T01:41:15.812Z,-5.31
2023-03-06T01:43:46.487Z,-5.35
2023-03-06T01:46:25.326Z,-5.38
2023-03-06T01:48:56.872Z,-5.39
2023-03-06T01:51:29.894Z,-5.41
2023-03-06T01:54:01.356Z,-5.43
2023-03-06T01:56:31.454Z,-5.44
2023-03-06T01:59:01.012Z,-5.44
2023-03-06T02:01:31.516Z,-5.44
2023-03-06T02:04:02.352Z,-5.45
2023-03-06T02:06:31.158Z,-5.48
2023-03-06T02:09:05.840Z,-5.47
2023-03-06T02:11:35.853Z,-5.48
2023-03-06T02:14:04.598Z,-5.49
2023-03-06T02:16:34.504Z,-5.50
2023-03-06T02:19:03.875Z,-5.50
2023-03-06T02:21:36.514Z,-5.53
2023-03-06T02:24:15.908Z,-5.52
2023-03-06T02:26:47.855Z,-5.52
2023-03-06T02:29:23.181Z,-5.53
2023-03-06T02:31:51.677Z,-5.53
2023-03-06T02:34:54.492Z,-5.55
2023-03-06T02:37:25.018Z,-5.55
2023-03-06T02:39:59.009Z,-5.52
2023-03-06T02:42:30.085Z,-5.46
2023-03-06T02:45:03.538Z,-5.36
2023-03-06T02:47:32.071Z,-5.28
2023-03-06T02:50:00.876Z,-5.24
2023-03-06T02:52:29.493Z,-5.25
2023-03-06T02:54:58.002Z,-5.32
2023-03-06T02:57:26.607Z,-5.34
2023-03-06T02:59:56.952Z,-5.37
2023-03-06T03:02:25.754Z,-5.40
2023-03-06T03:04:54.355Z,-5.45
2023-03-06T03:07:22.790Z,-5.46
2023-03-06T03:09:51.199Z,-5.42
2023-03-06T03:12:21.404Z,-5.38
2023-03-06T03:14:49.957Z,-5.38
2023-03-06T03:17:20.389Z,-5.38
2023-03-06T03:19:49.206Z,-5.37
2023-03-06T03:22:18.628Z,-5.35
2023-03-06T03:24:47.730Z,-5.32
2023-03-06T03:27:16.602Z,-5.29
2023-03-06T03:29:46.054Z,-5.29
2023-03-06T03:32:15.062Z,-5.29
2023-03-06T03:34:45.595Z,-5.26
2023-03-06T03:37:15.140Z,-5.29
2023-03-06T03:39:44.586Z,-5.32
2023-03-06T03:42:13.569Z,-5.37
2023-03-06T03:44:41.974Z,-5.40
2023-03-06T03:47:10.461Z,-5.45
2023-03-06T03:49:39.107Z,-5.49
2023-03-06T03:52:09.838Z,-5.51
2023-03-06T03:54:40.206Z,-5.50
2023-03-06T03:57:08.640Z,-5.49
2023-03-06T03:59:41.656Z,-5.52
2023-03-06T04:02:33.061Z,-5.58
2023-03-06T04:05:34.153Z,-5.60
2023-03-06T04:08:06.525Z,-5.65
2023-03-06T04:10:39.530Z,-5.69
2023-03-06T04:13:10.368Z,-5.72
2023-03-06T04:15:43.220Z,-5.79
2023-03-06T04:18:12.882Z,-5.87
2023-03-06T04:20:42.199Z,-5.91
2023-03-06T04:23:13.312Z,-5.95
2023-03-06T04:25:41.901Z,-5.95
2023-03-06T04:28:13.626Z,-5.95
2023-03-06T04:30:42.136Z,-5.96
2023-03-06T04:33:11.249Z,-6.02
2023-03-06T04:35:40.225Z,-6.07
2023-03-06T04:38:15.561Z,-6.07
2023-03-06T04:40:45.109Z,-6.12
2023-03-06T04:43:13.961Z,-6.14
2023-03-06T04:45:42.550Z,-6.18
2023-03-06T04:48:13.847Z,-6.21
2023-03-06T04:50:42.805Z,-6.27
2023-03-06T04:53:11.542Z,-6.32
2023-03-06T04:55:41.752Z,-6.40
2023-03-06T04:58:12.702Z,-6.39
2023-03-06T05:00:41.398Z,-6.38
2023-03-06T05:03:10.590Z,-6.43
2023-03-06T05:05:39.017Z,-6.41
2023-03-06T05:08:08.011Z,-6.46
2023-03-06T05:10:36.472Z,-6.50
2023-03-06T05:13:06.896Z,-6.52
2023-03-06T05:15:35.376Z,-6.55
2023-03-06T05:18:03.903Z,-6.57
2023-03-06T05:20:32.354Z,-6.57
2023-03-06T05:23:00.737Z,-6.54
2023-03-06T05:25:29.277Z,-6.50
2023-03-06T05:27:58.549Z,-6.51
2023-03-06T05:30:28.460Z,-6.48
2023-03-06T05:32:57.271Z,-6.44
2023-03-06T05:35:26.077Z,-6.44
2023-03-06T05:37:54.505Z,-6.43
2023-03-06T05:40:23.346Z,-6.46
2023-03-06T05:42:51.898Z,-6.43
2023-03-06T05:45:20.802Z,-6.36
2023-03-06T05:47:50.843Z,-6.26
2023-03-06T05:50:19.607Z,-6.18
2023-03-06T05:52:48.305Z,-6.09
2023-03-06T05:55:16.935Z,-6.02
2023-03-06T05:57:45.427Z,-5.94
2023-03-06T06:00:16.139Z,-5.89
2023-03-06T06:02:47.054Z,-5.84
2023-03-06T06:05:17.269Z,-5.81
2023-03-06T06:07:45.715Z,-5.76
2023-03-06T06:10:14.309Z,-5.71
2023-03-06T06:12:42.815Z,-5.68
2023-03-06T06:15:11.891Z,-5.62
2023-03-06T06:17:40.931Z,-5.56
2023-03-06T06:20:10.856Z,-5.49
2023-03-06T06:22:40.729Z,-5.39
2023-03-06T06:25:10.045Z,-5.31
2023-03-06T06:27:38.898Z,-5.19
2023-03-06T06:30:08.721Z,-5.01
2023-03-06T06:32:38.119Z,-4.89
2023-03-06T06:35:07.805Z,-4.75
2023-03-06T06:37:36.630Z,-4.62
2023-03-06T06:40:07.747Z,-4.50
2023-03-06T06:42:39.855Z,-4.41
2023-03-06T06:45:10.172Z,-4.30
2023-03-06T06:47:41.615Z,-4.17
2023-03-06T06:50:12.034Z,-3.97
2023-03-06T06:52:41.863Z,-3.74
2023-03-06T06:55:13.307Z,-3.45
2023-03-06T06:57:42.580Z,-3.23
2023-03-06T07:00:15.413Z,-3.01
2023-03-06T07:02:44.390Z,-2.84
2023-03-06T07:05:12.958Z,-2.69
2023-03-06T07:07:42.333Z,-2.56
2023-03-06T07:10:16.664Z,-2.36
2023-03-06T07:12:45.244Z,-2.11
2023-03-06T07:15:16.154Z,-1.86
2023-03-06T07:17:44.878Z,-1.71
2023-03-06T07:20:13.467Z,-1.54
2023-03-06T07:22:50.885Z,-1.36
2023-03-06T07:25:22.574Z,-1.20
2023-03-06T07:27:54.252Z,-1.07
2023-03-06T07:30:23.976Z,-0.92
2023-03-06T07:32:56.615Z,-0.80
2023-03-06T07:35:26.072Z,-0.70
2023-03-06T07:37:55.136Z,-0.57
2023-03-06T07:40:26.538Z,-0.44
2023-03-06T07:43:06.083Z,-0.33
2023-03-06T07:45:47.031Z,-0.20
2023-03-06T07:48:15.576Z,-0.09
2023-03-06T07:50:44.073Z,0.05
2023-03-06T07:53:12.991Z,0.15
2023-03-06T07:55:43.081Z,0.23
2023-03-06T07:58:12.047Z,0.31
2023-03-06T08:00:40.505Z,0.38
2023-03-06T08:03:10.533Z,0.46
2023-03-06T08:05:39.543Z,0.57
2023-03-06T08:08:08.925Z,0.62
2023-03-06T08:10:37.526Z,0.69
2023-03-06T08:13:07.490Z,0.75
2023-03-06T08:15:35.848Z,0.82
2023-03-06T08:18:04.725Z,0.89
2023-03-06T08:20:33.317Z,1.02
2023-03-06T08:23:02.469Z,1.17
2023-03-06T08:25:31.042Z,1.28
2023-03-06T08:28:05.721Z,1.38
2023-03-06T08:30:36.970Z,1.54
2023-03-06T08:33:05.660Z,1.65
2023-03-06T08:35:34.078Z,1.70
2023-03-06T08:38:02.776Z,1.83
2023-03-06T08:40:31.766Z,1.96
2023-03-06T08:43:00.360Z,2.09
2023-03-06T08:45:29.101Z,2.41
2023-03-06T08:47:59.224Z,2.88
2023-03-06T08:50:27.688Z,3.00
2023-03-06T08:52:56.618Z,2.94
2023-03-06T08:55:25.612Z,2.86
2023-03-06T08:57:54.150Z,2.92
2023-03-06T09:00:23.246Z,3.03
2023-03-06T09:02:51.770Z,3.11
2023-03-06T09:05:22.316Z,3.09
2023-03-06T09:07:51.189Z,3.10
2023-03-06T09:10:23.194Z,3.06
2023-03-06T09:12:54.425Z,3.11
2023-03-06T09:15:24.493Z,3.11
2023-03-06T09:17:54.313Z,3.07
2023-03-06T09:20:24.361Z,2.99
2023-03-06T09:22:53.138Z,2.94
2023-03-06T09:25:23.385Z,2.89
2023-03-06T09:28:08.646Z,2.81
2023-03-06T09:30:41.537Z,2.75
2023-03-06T09:33:10.314Z,2.72
2023-03-06T09:35:48.062Z,2.68
2023-03-06T09:38:16.678Z,2.66
2023-03-06T09:41:02.079Z,2.61
2023-03-06T09:43:33.203Z,2.56
2023-03-06T09:46:01.663Z,2.43
2023-03-06T09:48:40.961Z,2.44
2023-03-06T09:51:16.468Z,2.38
2023-03-06T09:54:03.598Z,2.30
2023-03-06T09:56:35.585Z,2.27
2023-03-06T09:59:12.589Z,2.34
2023-03-06T10:01:45.937Z,2.40
2023-03-06T10:04:33.710Z,2.38
2023-03-06T10:07:12.763Z,2.48
2023-03-06T10:09:47.774Z,2.63
2023-03-06T10:12:24.994Z,2.81
2023-03-06T10:15:01.723Z,2.96
2023-03-06T10:17:36.805Z,2.94
2023-03-06T10:20:18.374Z,2.83
2023-03-06T10:23:05.089Z,2.71
2023-03-06T10:25:38.991Z,2.57
2023-03-06T10:28:16.924Z,2.58
2023-03-06T10:30:56.286Z,2.56
2023-03-06T10:33:34.786Z,2.58
2023-03-06T10:36:03.309Z,2.57
2023-03-06T10:38:38.439Z,2.50
2023-03-06T10:41:22.622Z,2.43
2023-03-06T10:44:25.189Z,2.40
2023-03-06T10:46:56.412Z,2.48
2023-03-06T10:49:33.818Z,2.57
2023-03-06T10:52:06.994Z,2.58
2023-03-06T10:54:38.771Z,2.52
2023-03-06T10:57:26.035Z,2.41
2023-03-06T10:59:59.042Z,2.35
2023-03-06T11:02:31.550Z,2.24
2023-03-06T11:05:02.033Z,2.07
2023-03-06T11:07:31.608Z,2.05
2023-03-06T11:10:06.308Z,1.96
2023-03-06T11:12:36.886Z,1.89
2023-03-06T11:15:22.876Z,1.84
2023-03-06T11:17:58.699Z,1.81
2023-03-06T11:20:44.645Z,1.86
2023-03-06T11:23:21.035Z,1.94
2023-03-06T11:25:56.743Z,2.02
2023-03-06T11:28:30.160Z,2.08
2023-03-06T11:31:04.194Z,2.13
2023-03-06T11:33:40.765Z,2.13
2023-03-06T11:36:16.585Z,2.14
2023-03-06T11:38:50.292Z,2.15
2023-03-06T11:41:32.591Z,2.21
2023-03-06T11:44:14.652Z,2.18
2023-03-06T11:46:49.677Z,2.19
2023-03-06T11:49:24.738Z,2.16
2023-03-06T11:51:56.915Z,2.14
2023-03-06T11:54:26.246Z,2.07
2023-03-06T11:56:59.789Z,2.11
2023-03-06T11:59:51.711Z,2.08
2023-03-06T12:02:30.640Z,2.05
2023-03-06T12:05:23.011Z,2.01
2023-03-06T12:08:00.615Z,2.12
2023-03-06T12:10:36.774Z,2.08
2023-03-06T12:13:37.062Z,2.11
2023-03-06T12:16:34.669Z,2.16
2023-03-06T12:19:19.930Z,2.18
2023-03-06T12:21:59.436Z,2.22
2023-03-06T12:24:46.319Z,2.26
2023-03-06T12:27:24.005Z,2.30
2023-03-06T12:30:22.143Z,2.35
2023-03-06T12:32:59.015Z,2.39
2023-03-06T12:35:50.900Z,2.46
2023-03-06T12:38:38.730Z,2.62
2023-03-06T12:41:21.878Z,2.82
2023-03-06T12:44:14.267Z,3.03
2023-03-06T12:46:48.206Z,3.16
2023-03-06T12:49:31.804Z,3.28
2023-03-06T12:52:03.861Z,3.36
2023-03-06T12:54:37.737Z,3.46
2023-03-06T12:57:09.765Z,3.51
2023-03-06T12:59:42.932Z,3.58
2023-03-06T13:02:58.084Z,3.53
2023-03-06T13:05:57.340Z,3.52
2023-03-06T13:09:00.104Z,3.59
2023-03-06T13:12:02.142Z,3.65
2023-03-06T13:14:54.673Z,3.64
2023-03-06T13:17:41.392Z,3.62
2023-03-06T13:20:42.336Z,3.61
2023-03-06T13:24:01.290Z,3.60
2023-03-06T13:26:55.570Z,3.64
2023-03-06T13:30:00.885Z,3.64
2023-03-06T13:32:34.907Z,3.67
2023-03-06T13:35:04.277Z,3.73
2023-03-06T13:37:50.853Z,3.78
2023-03-06T13:40:31.515Z,3.79
2023-03-06T13:43:26.154Z,3.77
2023-03-06T13:45:54.861Z,3.77
2023-03-06T13:48:47.646Z,3.80
2023-03-06T13:51:24.349Z,3.81
2023-03-06T13:54:27.292Z,3.89
2023-03-06T13:57:14.900Z,3.93
2023-03-06T14:00:12.062Z,4.01
2023-03-06T14:03:14.403Z,4.11
2023-03-06T14:05:45.453Z,4.22
2023-03-06T14:08:17.937Z,4.32
2023-03-06T14:10:49.603Z,4.43
2023-03-06T14:13:23.548Z,4.39
2023-03-06T14:15:55.857Z,4.31
2023-03-06T14:18:25.688Z,4.19
2023-03-06T14:20:58.931Z,4.13
2023-03-06T14:23:33.604Z,4.08
2023-03-06T14:26:10.094Z,4.08
2023-03-06T14:28:38.783Z,4.06
2023-03-06T14:31:17.431Z,4.02
2023-03-06T14:33:52.991Z,3.96
2023-03-06T14:36:23.864Z,3.89
2023-03-06T14:38:55.034Z,3.83
2023-03-06T14:41:27.061Z,3.75
2023-03-06T14:44:09.652Z,3.71
2023-03-06T14:46:39.959Z,3.72
2023-03-06T14:49:08.960Z,3.69
2023-03-06T14:51:43.720Z,3.71
2023-03-06T14:54:19.666Z,3.70
2023-03-06T14:56:53.175Z,3.66
2023-03-06T14:59:26.422Z,3.64
2023-03-06T15:02:00.759Z,3.58
2023-03-06T15:04:36.855Z,3.54
2023-03-06T15:07:10.896Z,3.52
2023-03-06T15:09:40.861Z,3.51
2023-03-06T15:12:38.739Z,3.51
2023-03-06T15:15:30.327Z,3.44
2023-03-06T15:18:01.441Z,3.39
2023-03-06T15:20:43.308Z,3.33
2023-03-06T15:23:21.764Z,3.25
2023-03-06T15:25:52.799Z,3.17
2023-03-06T15:28:37.168Z,3.12
2023-03-06T15:31:20.756Z,3.04
2023-03-06T15:34:27.937Z,2.95
2023-03-06T15:36:58.938Z,2.91
2023-03-06T15:39:30.580Z,2.86
2023-03-06T15:42:00.295Z,2.81
2023-03-06T15:44:32.874Z,2.80
2023-03-06T15:47:09.393Z,2.78
2023-03-06T15:49:41.051Z,2.72
2023-03-06T15:52:11.503Z,2.66
2023-03-06T15:54:40.235Z,2.58
2023-03-06T15:57:18.732Z,2.52
2023-03-06T15:59:47.695Z,2.41
2023-03-06T16:02:19.027Z,2.38
2023-03-06T16:04:49.649Z,2.33
2023-03-06T16:07:18.712Z,2.27
2023-03-06T16:09:47.849Z,2.22
2023-03-06T16:12:18.764Z,2.17
2023-03-06T16:14:48.733Z,2.11
2023-03-06T16:17:17.931Z,2.08
2023-03-06T16:19:48.271Z,2.06
2023-03-06T16:22:16.823Z,2.03
2023-03-06T16:24:45.511Z,2.01
2023-03-06T16:27:19.249Z,1.97
2023-03-06T16:29:47.816Z,1.93
2023-03-06T16:32:17.660Z,1.88
2023-03-06T16:34:46.489Z,1.87
2023-03-06T16:37:16.989Z,1.87
2023-03-06T16:39:45.610Z,1.86
2023-03-06T16:42:14.148Z,1.85
2023-03-06T16:44:42.916Z,1.85
2023-03-06T16:47:13.148Z,1.84
2023-03-06T16:49:42.351Z,1.84
2023-03-06T16:52:12.239Z,1.82
2023-03-06T16:54:44.600Z,1.81
2023-03-06T16:57:15.778Z,1.81
2023-03-06T16:59:44.428Z,1.80
2023-03-06T17:02:13.669Z,1.76
2023-03-06T17:04:42.512Z,1.74
2023-03-06T17:07:11.946Z,1.77
2023-03-06T17:09:42.161Z,1.80
2023-03-06T17:12:11.333Z,1.94
2023-03-06T17:14:40.585Z,1.94
2023-03-06T17:17:09.144Z,1.98
2023-03-06T17:19:38.698Z,1.97
2023-03-06T17:22:07.631Z,1.96
2023-03-06T17:24:37.690Z,2.00
2023-03-06T17:27:08.109Z,2.05
2023-03-06T17:29:36.786Z,2.05
2023-03-06T17:32:05.724Z,2.12
2023-03-06T17:34:34.448Z,2.17
2023-03-06T17:37:06.498Z,2.23
2023-03-06T17:39:35.654Z,2.25
2023-03-06T17:42:05.262Z,2.22
2023-03-06T17:44:35.836Z,2.20
2023-03-06T17:47:04.854Z,2.16
2023-03-06T17:49:33.593Z,2.11
2023-03-06T17:52:03.771Z,2.02
2023-03-06T17:54:33.428Z,1.92
2023-03-06T17:57:03.760Z,1.79
2023-03-06T17:59:35.347Z,1.70
2023-03-06T18:02:06.497Z,1.62
2023-03-06T18:04:35.258Z,1.57
2023-03-06T18:07:04.158Z,1.54
2023-03-06T18:09:32.746Z,1.49
2023-03-06T18:12:01.788Z,1.43
2023-03-06T18:14:30.708Z,1.43
2023-03-06T18:17:00.930Z,1.41
2023-03-06T18:19:29.866Z,1.44
2023-03-06T18:21:58.594Z,1.44
2023-03-06T18:24:27.465Z,1.43
2023-03-06T18:26:56.061Z,1.42
2023-03-06T18:29:24.705Z,1.41
2023-03-06T18:31:53.530Z,1.38
2023-03-06T18:34:24.011Z,1.37
2023-03-06T18:36:53.057Z,1.38
2023-03-06T18:39:22.602Z,1.36
2023-03-06T18:41:51.988Z,1.35
2023-03-06T18:44:21.111Z,1.36
2023-03-06T18:46:50.086Z,1.35
2023-03-06T18:49:19.280Z,1.34
2023-03-06T18:51:51.134Z,1.31
2023-03-06T18:54:20.477Z,1.31
2023-03-06T18:56:49.701Z,1.31
2023-03-06T18:59:19.008Z,1.32
2023-03-06T19:01:48.829Z,1.33
2023-03-06T19:04:17.367Z,1.34
2023-03-06T19:06:46.275Z,1.34
2023-03-06T19:09:16.568Z,1.33
2023-03-06T19:11:47.005Z,1.33
2023-03-06T19:14:16.365Z,1.30
2023-03-06T19:16:45.317Z,1.29
2023-03-06T19:19:13.895Z,1.31
2023-03-06T19:21:42.977Z,1.30
2023-03-06T19:24:14.197Z,1.32
2023-03-06T19:26:44.436Z,1.33
2023-03-06T19:29:13.159Z,1.34
2023-03-06T19:31:43.303Z,1.34
2023-03-06T19:34:12.048Z,1.31
2023-03-06T19:36:40.978Z,1.31
2023-03-06T19:39:09.998Z,1.30
2023-03-06T19:41:38.669Z,1.31
2023-03-06T19:44:09.368Z,1.31
2023-03-06T19:46:40.822Z,1.30
2023-03-06T19:49:12.268Z,1.34
2023-03-06T19:51:40.917Z,1.36
2023-03-06T19:54:10.725Z,1.37
2023-03-06T19:56:39.430Z,1.36
2023-03-06T19:59:09.891Z,1.34
2023-03-06T20:01:38.794Z,1.34
2023-03-06T20:04:07.520Z,1.31
2023-03-06T20:06:36.895Z,1.30
2023-03-06T20:09:07.546Z,1.28
2023-03-06T20:11:36.805Z,1.23
2023-03-06T20:14:09.885Z,1.23
2023-03-06T20:16:38.773Z,1.23
2023-03-06T20:19:08.772Z,1.23
2023-03-06T20:21:38.102Z,1.25
2023-03-06T20:24:09.012Z,1.25
2023-03-06T20:26:38.688Z,1.25
2023-03-06T20:29:08.648Z,1.23
2023-03-06T20:31:37.380Z,1.20
2023-03-06T20:34:06.757Z,1.20
2023-03-06T20:36:37.910Z,1.21
2023-03-06T20:39:09.462Z,1.19
2023-03-06T20:41:38.267Z,1.14
2023-03-06T20:44:13.135Z,1.14
2023-03-06T20:46:42.309Z,1.11
2023-03-06T20:49:12.806Z,1.07
2023-03-06T20:51:42.466Z,1.09
2023-03-06T20:54:13.223Z,1.10
2023-03-06T20:56:44.993Z,1.13
2023-03-06T20:59:14.882Z,1.12
2023-03-06T21:01:45.440Z,1.10
2023-03-06T21:04:15.977Z,1.09
2023-03-06T21:06:47.022Z,1.10
2023-03-06T21:09:17.405Z,1.14
2023-03-06T21:11:46.681Z,1.12
2023-03-06T21:14:17.043Z,1.10
2023-03-06T21:16:45.611Z,1.11
2023-03-06T21:19:14.454Z,1.12
2023-03-06T21:21:43.386Z,1.12
2023-03-06T21:24:12.179Z,1.14
2023-03-06T21:26:41.261Z,1.15
2023-03-06T21:29:11.227Z,1.19
2023-03-06T21:31:41.783Z,1.19
2023-03-06T21:34:11.640Z,1.20
2023-03-06T21:36:40.266Z,1.20
2023-03-06T21:39:09.903Z,1.20
2023-03-06T21:41:42.102Z,1.17
2023-03-06T21:44:11.939Z,1.14
2023-03-06T21:46:42.978Z,1.09
2023-03-06T21:49:11.872Z,1.05
2023-03-06T21:51:40.615Z,1.03
2023-03-06T21:54:10.310Z,1.01
2023-03-06T21:56:38.847Z,0.99
2023-03-06T21:59:07.559Z,0.95
2023-03-06T22:01:36.740Z,0.92
2023-03-06T22:04:07.172Z,0.93
2023-03-06T22:06:36.324Z,0.96
2023-03-06T22:09:05.474Z,0.97
2023-03-06T22:11:37.129Z,0.96
2023-03-06T22:14:05.914Z,0.96
2023-03-06T22:16:34.878Z,0.96
2023-03-06T22:19:03.777Z,0.96
2023-03-06T22:21:33.906Z,0.95
2023-03-06T22:24:02.550Z,0.92
2023-03-06T22:26:31.515Z,0.88
2023-03-06T22:29:00.264Z,0.85
2023-03-06T22:31:29.841Z,0.80
2023-03-06T22:34:00.393Z,0.77
2023-03-06T22:36:31.716Z,0.77
2023-03-06T22:39:04.606Z,0.80
2023-03-06T22:41:33.498Z,0.80
2023-03-06T22:44:03.451Z,0.79
2023-03-06T22:46:32.334Z,0.78
2023-03-06T22:49:02.460Z,0.77
2023-03-06T22:51:31.136Z,0.80
2023-03-06T22:53:59.987Z,0.79
2023-03-06T22:56:30.268Z,0.78
2023-03-06T22:58:59.272Z,0.78
2023-03-06T23:01:29.861Z,0.79
2023-03-06T23:04:00.111Z,0.77
2023-03-06T23:06:30.835Z,0.75
2023-03-06T23:09:01.427Z,0.67
2023-03-06T23:11:31.860Z,0.61
2023-03-06T23:14:20.718Z,0.58
2023-03-06T23:17:07.620Z,0.57
2023-03-06T23:19:54.830Z,0.59
2023-03-06T23:22:42.043Z,0.63
2023-03-06T23:25:29.296Z,0.66
2023-03-06T23:27:59.691Z,0.70
2023-03-06T23:30:28.355Z,0.74
2023-03-06T23:32:57.253Z,0.74
2023-03-06T23:35:25.919Z,0.72
2023-03-06T23:37:54.650Z,0.71
2023-03-06T23:40:23.336Z,0.72
2023-03-06T23:42:51.814Z,0.73
2023-03-06T23:45:22.021Z,0.75
2023-03-06T23:47:50.881Z,0.78
2023-03-06T23:50:19.824Z,0.80
2023-03-06T23:52:48.408Z,0.81
2023-03-06T23:55:17.056Z,0.82
2023-03-06T23:57:45.747Z,0.80
